Jardinopolis, Brazil
Current Conditions -  °F | °C
As of 2:14 PM on Thursday 30 Oct 2014 (Local Time) from SBCH Reporting Station
Thunderstorm Thunderstorm  
Wind Chill: 73°   Ceiling: 3500
Heat Index: 73°   Visibility: 6mi
Dew Point: 66°   Wind: 23mph
Humidity: 78%   Direction: 230°SW
Pressure: NA   Gusts: 35mph
Location:  26.72°S, 52.86°W
Report Text: SBCH 301614Z 23020G30KT 9999 TS SCT006 BKN035 FEW050CB 23/19 Q1011
Loading
Personal Weather Stations






























Interactive Weather Map
Tropical Storm Tracking
New forecast layout! Learn more

10-Day Weather Forecast

Advertisements
Track Severe Weather on mobile